Time;durP1;ratioP1;P1;durP2;ratioP2;P2;SDS_P1;SDS_P2;PMS_P1;PMS_P2;Temp;Humidity;BMP_temperature;BMP_pressure;BME280_temperature;BME280_humidity;BME280_pressure;Samples;Min_cycle;Max_cycle;Signal;HPM_P1;HPM_P2
2022/02/23 00:00:43;;;;;;;1.83;0.80;;;7.70;99.90;;;;;;6213733;23;20171;-84
2022/02/23 00:03:19;;;;;;;1.60;0.83;;;7.70;99.90;;;;;;6211797;22;20382;-84
2022/02/23 00:05:44;;;;;;;2.20;0.83;;;7.70;99.90;;;;;;6200159;23;20772;-84
2022/02/23 00:08:10;;;;;;;2.00;0.77;;;7.70;99.90;;;;;;6209905;23;20550;-85
2022/02/23 00:10:35;;;;;;;1.00;0.90;;;7.80;99.90;;;;;;6209084;23;20193;-85
2022/02/23 00:13:01;;;;;;;1.30;0.80;;;7.80;99.90;;;;;;6209361;23;20645;-84
2022/02/23 00:15:27;;;;;;;6.10;1.03;;;7.80;99.90;;;;;;6208346;23;20504;-85
2022/02/23 00:17:55;;;;;;;2.33;1.20;;;7.90;99.90;;;;;;6206668;23;20221;-86
2022/02/23 00:20:23;;;;;;;1.70;1.03;;;7.90;99.90;;;;;;6210868;23;20155;-85
2022/02/23 00:22:49;;;;;;;1.13;0.40;;;7.80;99.90;;;;;;6210245;23;20413;-85
2022/02/23 00:25:16;;;;;;;1.67;0.70;;;7.90;99.90;;;;;;6209756;23;20166;-85
2022/02/23 00:27:45;;;;;;;0.73;0.73;;;7.90;99.90;;;;;;6208413;23;20228;-86
2022/02/23 00:30:19;;;;;;;1.20;0.70;;;7.90;99.90;;;;;;6210510;23;20959;-86
2022/02/23 00:32:47;;;;;;;2.20;0.80;;;7.90;99.90;;;;;;6210555;23;20393;-85
2022/02/23 00:35:16;;;;;;;2.53;0.60;;;7.90;99.90;;;;;;6201572;23;20482;-86
2022/02/23 00:37:41;;;;;;;2.13;0.90;;;7.80;99.90;;;;;;6207628;23;20383;-86
2022/02/23 00:40:08;;;;;;;1.70;0.90;;;7.80;99.90;;;;;;6212876;23;20881;-85
2022/02/23 00:42:34;;;;;;;3.23;0.87;;;7.60;99.90;;;;;;6214235;23;20167;-85
2022/02/23 00:44:59;;;;;;;2.63;0.80;;;7.50;99.90;;;;;;6212026;23;20394;-85
2022/02/23 00:47:25;;;;;;;3.27;1.80;;;7.40;99.90;;;;;;6208356;23;20224;-85
2022/02/23 00:49:51;;;;;;;2.67;0.80;;;7.40;99.90;;;;;;6208531;23;20243;-85
2022/02/23 00:52:17;;;;;;;1.00;0.70;;;7.40;99.90;;;;;;6208916;23;20242;-85
2022/02/23 00:54:42;;;;;;;2.70;0.80;;;7.40;99.90;;;;;;6209777;23;20194;-85
2022/02/23 00:57:09;;;;;;;0.73;0.73;;;7.40;99.90;;;;;;6206389;23;20201;-85
2022/02/23 00:59:35;;;;;;;1.43;1.00;;;7.40;99.90;;;;;;6208673;23;20186;-84
2022/02/23 01:02:01;;;;;;;1.43;0.60;;;7.40;99.90;;;;;;6210307;23;20393;-85
2022/02/23 01:04:27;;;;;;;1.33;0.80;;;7.30;99.90;;;;;;6208583;23;20393;-85
2022/02/23 01:06:53;;;;;;;2.50;0.90;;;7.20;99.90;;;;;;6208453;23;20230;-85
2022/02/23 01:09:19;;;;;;;0.97;0.70;;;7.30;99.90;;;;;;6207398;23;20191;-85
2022/02/23 01:11:44;;;;;;;2.00;0.67;;;7.30;99.90;;;;;;6210147;23;20178;-85
2022/02/23 01:14:11;;;;;;;2.20;1.00;;;7.30;99.90;;;;;;6208612;23;20984;-84
2022/02/23 01:16:37;;;;;;;0.90;0.87;;;7.30;99.90;;;;;;6211743;23;20159;-85
2022/02/23 01:19:05;;;;;;;1.40;0.73;;;7.30;99.90;;;;;;6208385;23;20406;-84
2022/02/23 01:21:31;;;;;;;2.10;1.00;;;7.30;99.90;;;;;;6207267;23;20395;-84
2022/02/23 01:23:56;;;;;;;1.47;0.90;;;7.40;99.90;;;;;;6209567;23;20468;-84
2022/02/23 01:26:22;;;;;;;1.17;0.60;;;7.40;99.90;;;;;;6213354;23;20165;-84
2022/02/23 01:29:00;;;;;;;0.60;0.60;;;7.40;99.90;;;;;;6209284;23;20206;-84
2022/02/23 01:31:25;;;;;;;2.20;0.90;;;7.40;99.90;;;;;;6208410;23;20143;-84
2022/02/23 01:33:54;;;;;;;1.40;0.93;;;7.40;99.90;;;;;;6207365;23;20400;-84
2022/02/23 01:36:19;;;;;;;1.13;0.87;;;7.40;99.90;;;;;;6208739;23;20340;-83
2022/02/23 01:38:45;;;;;;;1.70;1.00;;;7.40;99.90;;;;;;6209035;23;20688;-84
2022/02/23 01:41:11;;;;;;;2.20;1.00;;;7.30;99.90;;;;;;6208127;23;20617;-83
2022/02/23 01:43:37;;;;;;;3.80;1.20;;;7.30;99.90;;;;;;6208474;23;20188;-84
2022/02/23 01:46:03;;;;;;;3.27;0.80;;;7.30;99.90;;;;;;6205918;23;20452;-84
2022/02/23 01:48:28;;;;;;;2.00;1.00;;;7.40;99.90;;;;;;6209885;23;20190;-84
2022/02/23 01:50:54;;;;;;;1.73;0.80;;;7.30;99.90;;;;;;6207907;23;20451;-85
2022/02/23 01:53:35;;;;;;;1.70;1.00;;;7.30;99.90;;;;;;6208375;23;20414;-85
2022/02/23 01:56:02;;;;;;;1.17;1.07;;;7.30;99.90;;;;;;6207189;23;20370;-84
2022/02/23 01:58:28;;;;;;;1.30;0.90;;;7.40;99.90;;;;;;6210874;23;20942;-84
2022/02/23 02:00:53;;;;;;;1.13;0.80;;;7.40;99.90;;;;;;6209909;23;20473;-84
2022/02/23 02:03:19;;;;;;;2.70;1.27;;;7.40;99.90;;;;;;6209858;23;20206;-85
2022/02/23 02:05:45;;;;;;;2.40;0.70;;;7.40;99.90;;;;;;6205677;23;20155;-84
2022/02/23 02:08:11;;;;;;;1.77;0.67;;;7.50;99.90;;;;;;6212120;23;20559;-84
2022/02/23 02:10:37;;;;;;;2.43;0.83;;;7.50;99.90;;;;;;6208528;23;20194;-84
2022/02/23 02:13:03;;;;;;;2.13;0.90;;;7.50;99.90;;;;;;6207516;23;20245;-84
2022/02/23 02:15:28;;;;;;;2.77;0.90;;;7.50;99.90;;;;;;6210234;23;20402;-84
2022/02/23 02:17:54;;;;;;;0.93;0.60;;;6.90;99.90;;;;;;6210436;23;20397;-85
2022/02/23 02:20:20;;;;;;;1.43;0.63;;;6.40;99.90;;;;;;6209997;23;20640;-85
2022/02/23 02:22:46;;;;;;;2.17;0.80;;;5.80;99.90;;;;;;6217916;23;20180;-85
2022/02/23 02:25:12;;;;;;;2.30;0.70;;;5.50;99.90;;;;;;6220574;23;20395;-85
2022/02/23 02:27:37;;;;;;;1.50;0.70;;;5.40;99.90;;;;;;6208352;23;20392;-85
2022/02/23 02:30:04;;;;;;;5.10;1.00;;;5.20;99.90;;;;;;6207421;23;20211;-84
2022/02/23 02:32:30;;;;;;;3.40;0.87;;;5.10;99.90;;;;;;6209142;23;20725;-84
2022/02/23 02:34:56;;;;;;;2.60;1.23;;;5.10;99.90;;;;;;6211090;23;20804;-85
2022/02/23 02:37:22;;;;;;;2.13;1.13;;;5.10;99.90;;;;;;6211323;23;21112;-84
2022/02/23 02:39:48;;;;;;;6.50;1.60;;;5.10;99.90;;;;;;6208128;23;20415;-85
2022/02/23 02:42:14;;;;;;;2.60;0.87;;;5.10;99.90;;;;;;6211621;23;20162;-84
2022/02/23 02:44:41;;;;;;;1.87;0.70;;;5.10;99.90;;;;;;6209439;23;20434;-85
2022/02/23 02:47:07;;;;;;;4.53;1.03;;;5.10;99.90;;;;;;6209904;23;20510;-85
2022/02/23 02:49:32;;;;;;;3.40;1.27;;;5.10;99.90;;;;;;6210310;23;20796;-85
2022/02/23 02:51:58;;;;;;;5.57;0.87;;;5.10;99.90;;;;;;6210877;23;20389;-85
2022/02/23 02:54:24;;;;;;;2.40;0.83;;;5.20;99.90;;;;;;6211791;23;20205;-85
2022/02/23 02:56:50;;;;;;;1.20;0.60;;;5.20;99.90;;;;;;6211024;23;20168;-85
2022/02/23 02:59:17;;;;;;;2.37;0.80;;;5.20;99.90;;;;;;6209638;23;20706;-85
2022/02/23 03:01:43;;;;;;;2.13;0.90;;;5.30;99.90;;;;;;6206914;23;20384;-85
2022/02/23 03:04:09;;;;;;;5.03;0.90;;;5.30;99.90;;;;;;6210036;23;20884;-85
2022/02/23 03:06:43;;;;;;;6.50;0.97;;;5.30;99.90;;;;;;6214392;23;20535;-85
2022/02/23 03:09:11;;;;;;;2.30;0.90;;;5.20;99.90;;;;;;6209142;23;20360;-85
2022/02/23 03:11:40;;;;;;;3.93;1.63;;;5.30;99.90;;;;;;6209976;23;20448;-86
2022/02/23 03:14:08;;;;;;;4.40;0.93;;;5.30;99.90;;;;;;6209485;23;20405;-85
2022/02/23 03:16:34;;;;;;;6.90;1.20;;;5.40;99.90;;;;;;6210135;23;20386;-85
2022/02/23 03:19:05;;;;;;;3.63;1.40;;;5.40;99.90;;;;;;6208657;23;20430;-86
2022/02/23 03:21:32;;;;;;;2.10;1.00;;;5.50;99.90;;;;;;6212139;23;20158;-86
2022/02/23 03:24:16;;;;;;;3.20;0.90;;;5.50;99.90;;;;;;6209893;23;20512;-85
2022/02/23 03:26:42;;;;;;;2.73;1.23;;;5.50;99.90;;;;;;6210256;23;20457;-85
2022/02/23 03:29:10;;;;;;;2.90;1.10;;;5.60;99.90;;;;;;6209047;23;20440;-85
2022/02/23 03:31:36;;;;;;;4.27;1.10;;;5.50;99.90;;;;;;6208567;23;20159;-86
2022/02/23 03:34:17;;;;;;;2.20;1.00;;;5.50;99.90;;;;;;6209094;23;20903;-85
2022/02/23 03:36:42;;;;;;;5.30;1.17;;;5.50;99.90;;;;;;6210718;23;20170;-86
2022/02/23 03:39:08;;;;;;;3.87;1.10;;;5.50;99.90;;;;;;6209547;23;20405;-86
2022/02/23 03:41:34;;;;;;;2.30;0.80;;;5.50;99.90;;;;;;6208222;23;20160;-85
2022/02/23 03:44:00;;;;;;;1.93;0.90;;;5.60;99.90;;;;;;6212387;23;20661;-85
2022/02/23 03:46:25;;;;;;;2.20;1.03;;;5.60;99.90;;;;;;6210603;23;20489;-86
2022/02/23 03:48:51;;;;;;;3.20;1.30;;;5.60;99.90;;;;;;6186911;23;20195;-85
2022/02/23 03:51:17;;;;;;;4.43;1.40;;;5.70;99.90;;;;;;6212060;23;20169;-85
2022/02/23 03:53:43;;;;;;;1.80;1.00;;;5.70;99.90;;;;;;6211714;23;20162;-85
2022/02/23 03:56:38;;;;;;;3.37;1.33;;;5.70;99.90;;;;;;6211878;23;20640;-85
2022/02/23 03:58:54;;;;;;;4.60;1.20;;;5.70;99.90;;;;;;6212552;23;20151;-85
2022/02/23 04:01:20;;;;;;;2.53;1.00;;;5.70;99.90;;;;;;6211047;23;20394;-85
2022/02/23 04:03:45;;;;;;;4.77;0.80;;;5.50;99.90;;;;;;6211376;23;20589;-85
2022/02/23 04:06:13;;;;;;;3.40;2.00;;;5.40;99.90;;;;;;6211902;23;20170;-85
2022/02/23 04:08:39;;;;;;;3.87;1.30;;;5.30;99.90;;;;;;6210942;23;20154;-85
2022/02/23 04:11:05;;;;;;;5.70;1.63;;;5.30;99.90;;;;;;6210966;23;20812;-85
2022/02/23 04:13:30;;;;;;;2.47;0.97;;;5.20;99.90;;;;;;6209435;23;20689;-85
2022/02/23 04:15:56;;;;;;;3.33;1.20;;;5.10;99.90;;;;;;6211300;23;20451;-86
2022/02/23 04:18:22;;;;;;;3.57;1.53;;;5.00;99.90;;;;;;6211879;23;20189;-85
2022/02/23 04:20:47;;;;;;;2.93;1.10;;;5.00;99.90;;;;;;6209620;23;20170;-84
2022/02/23 04:23:13;;;;;;;1.20;1.10;;;4.90;99.90;;;;;;6210403;23;20251;-85
2022/02/23 04:25:40;;;;;;;4.70;1.30;;;4.90;99.90;;;;;;6211317;23;20679;-84
2022/02/23 04:28:05;;;;;;;1.90;1.10;;;4.90;99.90;;;;;;6209718;23;20160;-85
2022/02/23 04:30:31;;;;;;;3.20;1.30;;;4.80;99.90;;;;;;6211141;23;20738;-85
2022/02/23 04:32:57;;;;;;;4.20;1.30;;;4.80;99.90;;;;;;6216288;23;20424;-84
2022/02/23 04:35:23;;;;;;;3.43;1.20;;;4.80;99.90;;;;;;6210743;23;20175;-85
2022/02/23 04:37:48;;;;;;;3.77;1.93;;;4.80;99.90;;;;;;6211957;23;20213;-85
2022/02/23 04:40:17;;;;;;;4.83;1.70;;;4.90;99.90;;;;;;6211266;23;20189;-85
2022/02/23 04:42:43;;;;;;;4.80;2.13;;;4.80;99.90;;;;;;6213801;23;20624;-85
2022/02/23 04:45:09;;;;;;;2.00;1.80;;;4.80;99.90;;;;;;6209779;23;20505;-85
2022/02/23 04:47:34;;;;;;;3.43;1.20;;;4.80;99.90;;;;;;6210465;23;20602;-85
2022/02/23 04:50:00;;;;;;;4.23;0.90;;;4.90;99.90;;;;;;6210908;23;20196;-86
2022/02/23 04:52:29;;;;;;;2.23;1.20;;;4.90;99.90;;;;;;6211873;23;20493;-85
2022/02/23 04:54:54;;;;;;;4.23;1.27;;;4.90;99.90;;;;;;6217494;23;20906;-85
2022/02/23 04:57:21;;;;;;;5.40;1.30;;;5.00;99.90;;;;;;6213841;23;20393;-85
2022/02/23 04:59:52;;;;;;;3.60;1.50;;;4.90;99.90;;;;;;6210633;23;20451;-85
2022/02/23 05:02:25;;;;;;;3.13;1.00;;;5.00;99.90;;;;;;6211563;23;20388;-85
2022/02/23 05:04:55;;;;;;;8.03;1.63;;;5.00;99.90;;;;;;6211332;23;20508;-85
2022/02/23 05:07:23;;;;;;;3.90;1.17;;;5.00;99.90;;;;;;6206320;23;20661;-87
2022/02/23 05:09:56;;;;;;;4.73;1.93;;;4.90;99.90;;;;;;6212931;23;20535;-86
2022/02/23 05:12:26;;;;;;;8.13;2.27;;;4.80;99.90;;;;;;6214322;23;20464;-86
2022/02/23 05:15:03;;;;;;;7.63;2.33;;;4.80;99.90;;;;;;6211340;23;20401;-87
2022/02/23 05:17:29;;;;;;;5.77;1.67;;;4.80;99.90;;;;;;6207887;23;20393;-86
2022/02/23 05:20:04;;;;;;;5.00;2.13;;;4.80;99.90;;;;;;6210083;23;20453;-86
2022/02/23 05:22:30;;;;;;;2.43;1.37;;;4.80;99.90;;;;;;6209357;23;20474;-85
2022/02/23 05:25:06;;;;;;;7.20;1.87;;;4.70;99.90;;;;;;6209697;23;20798;-87
2022/02/23 05:27:32;;;;;;;8.47;2.47;;;4.70;99.90;;;;;;6208726;23;20434;-88
2022/02/23 05:29:58;;;;;;;3.80;2.33;;;4.60;99.90;;;;;;6211674;23;20442;-87
2022/02/23 05:32:24;;;;;;;3.80;2.40;;;4.60;99.90;;;;;;6211247;23;20393;-88
2022/02/23 05:34:50;;;;;;;6.13;3.60;;;4.50;99.90;;;;;;6209227;23;20192;-89
2022/02/23 05:37:15;;;;;;;6.93;5.10;;;4.40;99.90;;;;;;6182637;23;20182;-87
2022/02/23 05:39:41;;;;;;;10.77;6.60;;;4.40;99.90;;;;;;6211816;23;20394;-88
2022/02/23 05:42:07;;;;;;;4.20;3.20;;;4.30;99.90;;;;;;6208816;23;20470;-88
2022/02/23 05:44:33;;;;;;;5.70;3.00;;;4.30;99.90;;;;;;6208190;23;20165;-88
2022/02/23 05:47:02;;;;;;;4.30;2.70;;;4.20;99.90;;;;;;6208991;23;20437;-88
2022/02/23 05:49:29;;;;;;;3.70;1.93;;;4.20;99.90;;;;;;6208171;23;20186;-88
2022/02/23 05:51:55;;;;;;;3.30;2.10;;;4.10;99.90;;;;;;6210247;23;20395;-87
2022/02/23 05:54:22;;;;;;;6.10;2.00;;;4.10;99.90;;;;;;6210588;23;20412;-87
2022/02/23 05:56:50;;;;;;;4.00;2.03;;;4.20;99.90;;;;;;6208375;23;20404;-89
2022/02/23 05:59:17;;;;;;;5.60;3.00;;;4.20;99.90;;;;;;6210126;22;20510;-88
2022/02/23 06:01:45;;;;;;;4.47;2.37;;;4.10;99.90;;;;;;6185417;23;20476;-88
2022/02/23 06:04:10;;;;;;;7.23;2.43;;;4.10;99.90;;;;;;6207068;23;20408;-87
2022/02/23 06:06:36;;;;;;;10.67;2.53;;;4.10;99.90;;;;;;6211164;23;20394;-87
2022/02/23 06:09:02;;;;;;;8.07;2.43;;;4.10;99.90;;;;;;6211377;23;20199;-86
2022/02/23 06:11:28;;;;;;;3.30;2.30;;;4.10;99.90;;;;;;6215092;23;20585;-87
2022/02/23 06:16:32;;;;;;;3.47;2.17;;;4.10;99.90;;;;;;6220281;22;20146;-88
2022/02/23 06:18:58;;;;;;;3.97;2.30;;;4.10;99.90;;;;;;6211978;23;20390;-85
2022/02/23 06:22:01;;;;;;;4.03;2.10;;;4.10;99.90;;;;;;6210793;23;20481;-88
2022/02/23 06:24:27;;;;;;;2.40;1.83;;;4.10;99.90;;;;;;6212800;23;20504;-85
2022/02/23 06:26:57;;;;;;;8.60;2.33;;;4.00;99.90;;;;;;6216915;23;20493;-85
2022/02/23 06:29:32;;;;;;;7.77;2.73;;;4.10;99.90;;;;;;6194244;23;20640;-86
2022/02/23 06:32:03;;;;;;;5.73;2.40;;;4.10;99.90;;;;;;6216262;23;20409;-85
2022/02/23 06:34:30;;;;;;;4.80;2.40;;;4.00;99.90;;;;;;6215853;23;20631;-85
2022/02/23 06:39:38;;;;;;;5.77;3.60;;;4.10;99.90;;;;;;6244632;22;20851;-85
2022/02/23 06:42:04;;;;;;;5.43;4.00;;;4.10;99.90;;;;;;6216928;22;20395;-84
2022/02/23 06:44:31;;;;;;;5.90;4.20;;;4.10;99.90;;;;;;6216580;22;20935;-85
2022/02/23 06:47:00;;;;;;;5.80;3.80;;;4.10;99.90;;;;;;6223375;22;20823;-84
2022/02/23 06:49:30;;;;;;;6.70;3.80;;;4.10;99.90;;;;;;6222117;22;20436;-85
2022/02/23 06:52:00;;;;;;;6.47;3.23;;;4.20;99.90;;;;;;6224077;22;20423;-85
2022/02/23 06:54:28;;;;;;;6.90;3.80;;;4.30;99.90;;;;;;6223822;22;20382;-84
2022/02/23 06:56:59;;;;;;;9.43;4.10;;;4.30;99.90;;;;;;6225976;22;20431;-89
2022/02/23 07:02:14;;;;;;;4.97;3.50;;;4.40;99.90;;;;;;6247084;22;20385;-84
2022/02/23 07:04:52;;;;;;;5.70;3.57;;;4.50;99.90;;;;;;6223347;22;20392;-85
2022/02/23 07:07:19;;;;;;;5.83;3.17;;;4.50;99.90;;;;;;6222480;22;20407;-86
2022/02/23 07:09:57;;;;;;;7.20;3.10;;;4.60;99.90;;;;;;6224251;22;20472;-85
2022/02/23 07:12:23;;;;;;;9.53;4.63;;;4.70;99.90;;;;;;6222963;22;20851;-85
2022/02/23 07:14:49;;;;;;;15.00;12.27;;;4.80;99.90;;;;;;6229493;22;20431;-85
2022/02/23 07:17:17;;;;;;;9.10;5.77;;;4.80;99.90;;;;;;6229383;22;20806;-85
2022/02/23 07:19:43;;;;;;;4.87;3.50;;;4.90;99.90;;;;;;6228230;22;20427;-84
2022/02/23 07:22:14;;;;;;;5.80;3.13;;;4.90;99.90;;;;;;6229887;22;20389;-84
2022/02/23 07:24:42;;;;;;;3.53;2.60;;;4.90;99.90;;;;;;6230770;22;20153;-84
2022/02/23 07:27:18;;;;;;;6.03;3.13;;;4.90;99.90;;;;;;6258432;22;20388;-84
2022/02/23 07:29:46;;;;;;;4.97;2.60;;;4.90;99.90;;;;;;6228483;22;20994;-84
2022/02/23 07:32:13;;;;;;;6.83;2.67;;;4.90;99.90;;;;;;6227846;22;20534;-84
2022/02/23 07:35:13;;;;;;;3.70;2.47;;;5.00;99.90;;;;;;6229384;22;20684;-84
2022/02/23 07:37:43;;;;;;;6.70;3.10;;;5.10;99.90;;;;;;6253591;22;20410;-84
2022/02/23 07:40:18;;;;;;;4.50;3.20;;;5.20;99.90;;;;;;6230366;22;20479;-85
2022/02/23 07:42:46;;;;;;;5.83;2.77;;;5.30;99.90;;;;;;6229731;22;20846;-84
2022/02/23 07:45:24;;;;;;;8.80;3.60;;;5.30;99.90;;;;;;6239496;22;20378;-84
2022/02/23 07:47:53;;;;;;;6.80;2.80;;;5.40;99.90;;;;;;6240740;22;20423;-84
2022/02/23 07:50:19;;;;;;;5.93;2.60;;;5.50;99.90;;;;;;6235821;22;20771;-85
2022/02/23 07:53:00;;;;;;;8.23;2.57;;;5.70;99.90;;;;;;6230343;22;20618;-84
2022/02/23 07:55:29;;;;;;;3.43;2.20;;;5.80;99.90;;;;;;6230602;22;20157;-84
2022/02/23 07:58:08;;;;;;;;;;;;;;;;;;;;;
2022/02/23 08:00:39;;;;;;;5.70;2.63;;;6.20;99.90;;;;;;6257664;22;20873;-84
2022/02/23 08:03:05;;;;;;;6.00;3.23;;;6.30;99.90;;;;;;6230536;22;20408;-85
2022/02/23 08:05:31;;;;;;;3.87;2.43;;;6.40;99.90;;;;;;6231552;22;20397;-85
2022/02/23 08:07:57;;;;;;;9.50;3.40;;;6.40;99.90;;;;;;6224402;22;20860;-85
2022/02/23 08:10:24;;;;;;;11.33;4.83;;;6.50;99.90;;;;;;6230131;22;20304;-85
2022/02/23 08:12:55;;;;;;;7.90;4.40;;;6.60;99.90;;;;;;6228443;22;20155;-85
2022/02/23 08:20:58;;;;;;;5.10;3.40;;;7.10;99.90;;;;;;6251409;22;20364;-83
2022/02/23 08:23:26;;;;;;;9.03;3.77;;;7.30;99.90;;;;;;6222691;22;20698;-84
2022/02/23 08:26:01;;;;;;;7.57;4.10;;;7.40;99.90;;;;;;6225425;22;20716;-83
2022/02/23 08:28:44;;;;;;;7.37;3.50;;;7.50;99.90;;;;;;6222980;22;20916;-84
2022/02/23 08:31:37;;;;;;;8.90;5.03;;;7.60;99.90;;;;;;6225869;22;20490;-84
2022/02/23 08:34:10;;;;;;;8.90;4.93;;;7.70;99.90;;;;;;6249102;22;20423;-84
2022/02/23 08:36:35;;;;;;;5.33;2.70;;;7.60;99.90;;;;;;6223617;22;20460;-85
2022/02/23 08:39:01;;;;;;;4.87;3.20;;;7.60;99.90;;;;;;6218158;23;21335;-84
2022/02/23 08:41:29;;;;;;;2.80;2.50;;;7.60;99.90;;;;;;6222004;23;20663;-85
2022/02/23 08:43:55;;;;;;;4.63;2.60;;;7.60;99.90;;;;;;6216820;23;20852;-85
2022/02/23 08:46:21;;;;;;;3.37;2.50;;;7.60;99.90;;;;;;6220513;23;20491;-85
2022/02/23 08:48:55;;;;;;;5.33;3.10;;;7.70;99.90;;;;;;6219420;23;20391;-85
2022/02/23 08:51:45;;;;;;;10.40;4.07;;;7.80;99.90;;;;;;6220003;23;20564;-84
2022/02/23 08:54:24;;;;;;;;;;;;;;;;;;;;;
2022/02/23 08:57:02;;;;;;;16.00;5.20;;;8.30;99.90;;;;;;6220639;23;20371;-84
2022/02/23 08:59:27;;;;;;;3.80;2.80;;;8.60;99.90;;;;;;6217694;23;20932;-85
2022/02/23 09:01:58;;;;;;;6.10;2.50;;;8.80;99.90;;;;;;6222825;23;20467;-84
2022/02/23 09:04:49;;;;;;;5.13;2.13;;;8.90;99.90;;;;;;6209024;23;20352;-84
2022/02/23 09:07:14;;;;;;;3.13;2.30;;;8.90;99.90;;;;;;6216405;23;20408;-84
2022/02/23 09:09:43;;;;;;;4.20;2.00;;;8.90;99.90;;;;;;6193247;23;20452;-84
2022/02/23 09:12:09;;;;;;;4.73;2.00;;;9.00;99.90;;;;;;6219596;23;20329;-85
2022/02/23 09:14:43;;;;;;;6.47;2.33;;;9.00;99.90;;;;;;6216726;23;20425;-85
2022/02/23 09:17:28;;;;;;;8.20;4.93;;;9.20;99.90;;;;;;6174227;22;20401;-85
2022/02/23 09:19:55;;;;;;;8.10;3.60;;;9.40;99.90;;;;;;6222722;23;20425;-85
2022/02/23 09:22:21;;;;;;;7.37;2.40;;;9.70;99.90;;;;;;6223058;23;20485;-86
2022/02/23 09:24:49;;;;;;;3.63;2.60;;;9.70;99.90;;;;;;6220562;23;20915;-85
2022/02/23 09:27:24;;;;;;;3.10;2.23;;;9.70;99.90;;;;;;6218904;23;20418;-85
2022/02/23 09:29:50;;;;;;;3.07;1.87;;;9.90;99.90;;;;;;6217711;23;20433;-85
2022/02/23 09:32:18;;;;;;;5.37;1.80;;;9.90;99.90;;;;;;6219672;23;20389;-84
2022/02/23 09:34:46;;;;;;;3.30;2.30;;;9.90;99.90;;;;;;6219332;23;20173;-85
2022/02/23 09:37:38;;;;;;;5.40;2.07;;;10.00;99.90;;;;;;6218495;22;20398;-85
2022/02/23 09:40:15;;;;;;;;;;;;;;;;;;;;;
2022/02/23 09:42:48;;;;;;;6.53;2.00;;;10.50;99.90;;;;;;6250599;22;20353;-85
2022/02/23 09:45:17;;;;;;;5.97;2.00;;;10.70;99.90;;;;;;6222625;22;20427;-85
2022/02/23 09:47:50;;;;;;;4.80;1.93;;;10.80;99.90;;;;;;6223915;22;20768;-85
2022/02/23 09:50:26;;;;;;;4.80;1.87;;;11.00;99.90;;;;;;6222465;22;20440;-85
2022/02/23 09:52:52;;;;;;;2.17;1.30;;;11.00;99.90;;;;;;6224825;22;20369;-85
2022/02/23 09:55:20;;;;;;;2.00;1.13;;;11.30;99.90;;;;;;6222961;22;20755;-84
2022/02/23 09:57:50;;;;;;;5.23;1.87;;;11.40;99.80;;;;;;6230814;22;20758;-83
2022/02/23 10:00:16;;;;;;;2.40;1.33;;;11.70;99.90;;;;;;6229039;22;20389;-83
2022/02/23 10:02:42;;;;;;;4.27;1.37;;;11.90;98.00;;;;;;6236648;22;20425;-84
2022/02/23 10:05:10;;;;;;;3.13;1.60;;;12.10;96.60;;;;;;6239425;22;20393;-83
2022/02/23 10:08:09;;;;;;;2.90;1.47;;;12.30;97.40;;;;;;6256185;22;20400;-84
2022/02/23 10:10:40;;;;;;;3.00;1.20;;;12.70;96.10;;;;;;6227475;22;20471;-84
2022/02/23 10:13:09;;;;;;;6.10;1.57;;;12.70;93.40;;;;;;6252952;22;20873;-84
2022/02/23 10:15:41;;;;;;;7.50;1.43;;;12.50;93.60;;;;;;6229926;22;20757;-83
2022/02/23 10:18:12;;;;;;;3.20;1.60;;;12.40;95.10;;;;;;6231668;22;20476;-83
2022/02/23 10:20:39;;;;;;;4.03;1.67;;;12.50;95.00;;;;;;6230080;22;20389;-83
2022/02/23 10:25:58;;;;;;;2.10;1.13;;;12.70;94.40;;;;;;6232695;22;20385;-84
2022/02/23 10:28:35;;;;;;;6.37;1.50;;;12.60;94.10;;;;;;6229048;22;20385;-83
2022/02/23 10:31:09;;;;;;;3.67;1.70;;;12.60;95.20;;;;;;6227909;22;20562;-84
2022/02/23 10:33:38;;;;;;;4.20;1.20;;;12.80;96.20;;;;;;6224028;22;20452;-83
2022/02/23 10:36:10;;;;;;;3.30;1.67;;;13.10;93.50;;;;;;6224837;22;20401;-83
2022/02/23 10:38:39;;;;;;;6.77;1.50;;;13.50;93.40;;;;;;6220352;23;20401;-83
2022/02/23 10:41:06;;;;;;;1.60;1.00;;;13.80;93.90;;;;;;6220982;23;20929;-84
2022/02/23 10:43:42;;;;;;;4.87;1.50;;;13.80;93.90;;;;;;6219492;23;20381;-83
2022/02/23 10:46:18;;;;;;;2.20;1.40;;;13.80;92.30;;;;;;6219210;22;20374;-84
2022/02/23 10:48:48;;;;;;;5.00;1.80;;;13.70;92.50;;;;;;6215046;23;20984;-84
2022/02/23 10:51:23;;;;;;;3.70;1.20;;;13.70;92.20;;;;;;6214167;23;20405;-84
2022/02/23 10:53:51;;;;;;;3.50;1.23;;;13.00;91.80;;;;;;6212316;23;20389;-84
2022/02/23 10:56:27;;;;;;;2.13;1.10;;;12.50;93.00;;;;;;6216973;23;20453;-84
2022/02/23 10:59:00;;;;;;;2.33;1.13;;;12.90;93.20;;;;;;6213873;23;20396;-84
2022/02/23 11:01:27;;;;;;;3.90;1.60;;;13.20;91.80;;;;;;6213393;23;20838;-83
2022/02/23 11:04:52;;;;;;;2.90;1.60;;;12.70;93.20;;;;;;6215421;23;20393;-84
2022/02/23 11:07:19;;;;;;;4.10;1.27;;;12.60;94.40;;;;;;6200412;23;20500;-83
2022/02/23 11:09:44;;;;;;;3.43;1.50;;;13.20;92.90;;;;;;6212802;23;20614;-83
2022/02/23 11:12:10;;;;;;;3.13;1.40;;;13.70;92.20;;;;;;6214143;23;20870;-83
2022/02/23 11:14:36;;;;;;;4.30;1.60;;;14.10;91.30;;;;;;6213837;23;20159;-84
2022/02/23 11:17:03;;;;;;;3.17;1.23;;;14.00;90.70;;;;;;6216880;23;20930;-83
2022/02/23 11:19:34;;;;;;;2.20;1.23;;;14.10;91.30;;;;;;6216304;22;20836;-84
2022/02/23 11:22:02;;;;;;;1.53;1.17;;;14.60;90.60;;;;;;6215712;23;20397;-84
2022/02/23 11:24:29;;;;;;;3.47;1.70;;;14.60;88.20;;;;;;6215828;23;20632;-84
2022/02/23 11:27:00;;;;;;;3.80;1.50;;;14.10;90.00;;;;;;6220012;23;20393;-84
2022/02/23 11:29:36;;;;;;;4.47;1.50;;;13.60;90.30;;;;;;6209609;23;20500;-84
2022/02/23 11:32:05;;;;;;;5.63;1.43;;;13.60;90.80;;;;;;6216915;22;20872;-84
2022/02/23 11:34:40;;;;;;;7.27;2.00;;;13.60;90.60;;;;;;6211980;23;20392;-82
2022/02/23 11:37:15;;;;;;;2.90;1.40;;;13.70;92.80;;;;;;6217450;23;20666;-84
2022/02/23 11:39:45;;;;;;;4.20;1.50;;;14.00;91.00;;;;;;6212787;23;20465;-84
2022/02/23 11:42:21;;;;;;;6.53;1.50;;;13.70;88.90;;;;;;6216281;23;20710;-84
2022/02/23 11:44:49;;;;;;;2.60;1.40;;;13.90;88.90;;;;;;6211557;23;20771;-84
2022/02/23 11:47:21;;;;;;;2.90;1.60;;;13.80;90.40;;;;;;6216776;23;20465;-84
2022/02/23 11:49:55;;;;;;;4.63;1.73;;;13.60;91.80;;;;;;6216266;23;20437;-84
2022/02/23 11:52:23;;;;;;;3.37;1.40;;;14.20;90.40;;;;;;6213903;23;20721;-84
2022/02/23 11:54:51;;;;;;;4.03;1.70;;;14.60;89.40;;;;;;6214138;23;20408;-84
2022/02/23 11:57:39;;;;;;;3.37;1.40;;;14.80;89.10;;;;;;6214127;23;21164;-84
2022/02/23 12:00:07;;;;;;;3.13;1.47;;;15.40;90.50;;;;;;6213228;23;20397;-83
2022/02/23 12:02:34;;;;;;;3.17;1.47;;;15.40;90.20;;;;;;6213699;23;20393;-83
2022/02/23 12:05:00;;;;;;;2.30;1.43;;;15.40;85.80;;;;;;6212543;23;20875;-84
2022/02/23 12:07:43;;;;;;;4.33;1.80;;;15.40;85.00;;;;;;6215139;23;20394;-84
2022/02/23 12:10:09;;;;;;;4.63;1.67;;;15.60;83.80;;;;;;6212619;23;20433;-84
2022/02/23 12:12:45;;;;;;;4.30;1.93;;;15.40;89.00;;;;;;6210671;23;20690;-84
2022/02/23 12:15:35;;;;;;;3.17;1.10;;;15.40;88.30;;;;;;6211316;23;20995;-84
2022/02/23 12:18:15;;;;;;;2.73;1.23;;;15.80;81.70;;;;;;6215044;23;20415;-84
2022/02/23 12:20:45;;;;;;;3.80;1.50;;;15.60;86.50;;;;;;6216638;23;20386;-84
2022/02/23 12:26:04;;;;;;;2.23;1.33;;;15.10;87.60;;;;;;6214812;23;20382;-84
2022/02/23 12:28:35;;;;;;;2.40;1.37;;;15.40;84.80;;;;;;6210618;23;20445;-85
2022/02/23 12:31:00;;;;;;;4.20;1.20;;;14.90;84.50;;;;;;6215617;22;20522;-84
2022/02/23 12:33:27;;;;;;;3.23;1.83;;;15.40;86.10;;;;;;6213323;23;20390;-84
2022/02/23 12:35:54;;;;;;;4.63;1.40;;;15.60;86.30;;;;;;6215678;23;20223;-84
2022/02/23 12:38:28;;;;;;;2.53;1.57;;;15.60;82.00;;;;;;6221321;23;20420;-84
2022/02/23 12:40:55;;;;;;;2.43;1.10;;;15.60;82.90;;;;;;6219426;23;20482;-83
2022/02/23 12:43:21;;;;;;;3.60;1.87;;;15.80;82.80;;;;;;6220619;23;20386;-84
2022/02/23 12:45:53;;;;;;;1.90;1.20;;;15.00;82.10;;;;;;6214695;23;20386;-84
2022/02/23 12:48:30;;;;;;;2.53;1.30;;;14.90;84.20;;;;;;6217954;23;20159;-84
2022/02/23 12:51:04;;;;;;;3.23;1.50;;;14.50;84.60;;;;;;6216484;23;20457;-84
2022/02/23 12:53:35;;;;;;;5.10;1.50;;;14.40;87.50;;;;;;6217758;23;20386;-90
2022/02/23 12:59:29;;;;;;;2.00;1.10;;;16.10;78.90;;;;;;6219613;22;20366;-90
2022/02/23 13:01:58;;;;;;;1.53;1.07;;;16.10;77.10;;;;;;6207516;22;20428;-85
2022/02/23 13:04:33;;;;;;;3.70;1.37;;;16.50;78.10;;;;;;6210196;23;20391;-85
2022/02/23 13:10:21;;;;;;;4.90;1.70;;;16.10;76.70;;;;;;6214701;23;20449;-85
2022/02/23 13:16:52;;;;;;;2.33;1.20;;;16.40;76.30;;;;;;6217309;23;20155;-85
2022/02/23 13:19:29;;;;;;;3.40;1.30;;;16.50;79.10;;;;;;6212551;23;20429;-85
2022/02/23 13:22:03;;;;;;;5.03;1.60;;;16.30;76.90;;;;;;6216227;23;20401;-85
2022/02/23 13:24:30;;;;;;;3.57;1.33;;;16.00;78.60;;;;;;6213723;23;20527;-85
2022/02/23 13:26:56;;;;;;;3.70;1.30;;;16.20;78.40;;;;;;6216173;23;20444;-85
2022/02/23 13:29:55;;;;;;;3.33;1.43;;;15.20;78.20;;;;;;6214668;23;20425;-85
2022/02/23 13:32:26;;;;;;;3.10;1.70;;;15.00;81.60;;;;;;6215806;23;20931;-85
2022/02/23 13:38:15;;;;;;;2.43;1.57;;;14.00;83.40;;;;;;6227924;22;20787;-85
2022/02/23 13:44:18;;;;;;;3.50;1.67;;;15.80;81.60;;;;;;6248754;22;20785;-85
2022/02/23 13:50:14;;;;;;;1.50;1.13;;;16.10;81.90;;;;;;6246519;22;20439;-84